sensor_id;sensor_type;location;lat;lon;timestamp;pressure;altitude;pressure_sealevel;temperature;humidity
85130;BME280;75492;49.310;20.046;2024-03-07T02:45:53;91837.16;;;-0.58;86.60
85130;BME280;75492;49.310;20.046;2024-03-07T08:35:59;91965.94;;;-1.14;87.80
85130;BME280;75492;49.310;20.046;2024-03-07T08:41:01;91971.25;;;-1.20;89.65
85130;BME280;75492;49.310;20.046;2024-03-07T08:46:02;91985.72;;;-1.22;88.58
85130;BME280;75492;49.310;20.046;2024-03-07T08:51:05;92001.19;;;-0.95;88.95
85130;BME280;75492;49.310;20.046;2024-03-07T08:56:07;92009.97;;;-1.15;88.66
85130;BME280;75492;49.310;20.046;2024-03-07T09:01:08;92020.00;;;-1.22;88.30
85130;BME280;75492;49.310;20.046;2024-03-07T09:06:11;92015.22;;;-1.15;89.21
85130;BME280;75492;49.310;20.046;2024-03-07T09:11:12;92018.88;;;-1.01;88.55
85130;BME280;75492;49.310;20.046;2024-03-07T09:16:14;91956.56;;;-1.46;89.76
85130;BME280;75492;49.310;20.046;2024-03-07T09:21:17;92017.03;;;-1.05;88.54
85130;BME280;75492;49.310;20.046;2024-03-07T09:26:18;92012.31;;;-1.13;89.62
85130;BME280;75492;49.310;20.046;2024-03-07T09:31:19;92022.88;;;-1.24;90.31
85130;BME280;75492;49.310;20.046;2024-03-07T09:36:23;92030.00;;;-1.19;89.36
85130;BME280;75492;49.310;20.046;2024-03-07T09:41:25;91998.47;;;-1.50;91.07
85130;BME280;75492;49.310;20.046;2024-03-07T09:46:29;92039.22;;;-1.16;89.46
85130;BME280;75492;49.310;20.046;2024-03-07T09:51:33;92037.91;;;-1.19;88.43
85130;BME280;75492;49.310;20.046;2024-03-07T09:56:36;92035.00;;;-1.17;89.15
85130;BME280;75492;49.310;20.046;2024-03-07T10:01:38;92043.50;;;-1.36;90.15
85130;BME280;75492;49.310;20.046;2024-03-07T10:06:42;92040.81;;;-1.15;89.82
85130;BME280;75492;49.310;20.046;2024-03-07T10:11:44;92036.84;;;-1.18;89.54
85130;BME280;75492;49.310;20.046;2024-03-07T10:16:45;92043.75;;;-1.37;90.17
85130;BME280;75492;49.310;20.046;2024-03-07T10:21:48;92036.13;;;-1.39;90.74
85130;BME280;75492;49.310;20.046;2024-03-07T10:26:49;92025.03;;;-1.41;90.58
85130;BME280;75492;49.310;20.046;2024-03-07T10:31:56;92056.09;;;-1.17;89.81
85130;BME280;75492;49.310;20.046;2024-03-07T10:37:00;92059.44;;;-0.91;90.34
85130;BME280;75492;49.310;20.046;2024-03-07T10:42:02;92057.91;;;-1.08;89.45
85130;BME280;75492;49.310;20.046;2024-03-07T10:47:04;92044.19;;;-1.00;89.19
85130;BME280;75492;49.310;20.046;2024-03-07T10:52:13;92061.31;;;-0.92;89.28
85130;BME280;75492;49.310;20.046;2024-03-07T10:57:20;92045.22;;;-1.01;87.58
85130;BME280;75492;49.310;20.046;2024-03-07T11:02:30;92053.41;;;-1.02;88.16
85130;BME280;75492;49.310;20.046;2024-03-07T11:07:35;92049.47;;;-1.05;88.72
85130;BME280;75492;49.310;20.046;2024-03-07T11:12:37;92056.06;;;-1.02;90.37
85130;BME280;75492;49.310;20.046;2024-03-07T11:17:39;92036.09;;;-1.29;89.63
85130;BME280;75492;49.310;20.046;2024-03-07T11:22:42;92050.25;;;-1.04;89.75
85130;BME280;75492;49.310;20.046;2024-03-07T11:27:50;92050.78;;;-1.07;88.70
85130;BME280;75492;49.310;20.046;2024-03-07T11:32:53;92054.78;;;-1.10;89.81
85130;BME280;75492;49.310;20.046;2024-03-07T11:37:59;92017.91;;;-1.25;90.58
85130;BME280;75492;49.310;20.046;2024-03-07T11:43:01;92043.78;;;-1.53;91.75
85130;BME280;75492;49.310;20.046;2024-03-07T11:48:04;92057.97;;;-1.28;91.24
85130;BME280;75492;49.310;20.046;2024-03-07T11:53:08;92054.00;;;-1.26;91.83
85130;BME280;75492;49.310;20.046;2024-03-07T11:58:10;92058.22;;;-1.25;91.95
85130;BME280;75492;49.310;20.046;2024-03-07T12:03:12;92061.88;;;-1.15;90.42
85130;BME280;75492;49.310;20.046;2024-03-07T12:08:15;92059.03;;;-1.29;92.16
85130;BME280;75492;49.310;20.046;2024-03-07T12:13:17;92052.69;;;-1.44;91.72
85130;BME280;75492;49.310;20.046;2024-03-07T12:18:19;92052.97;;;-1.40;91.98
85130;BME280;75492;49.310;20.046;2024-03-07T12:23:24;92063.22;;;-1.23;91.03
85130;BME280;75492;49.310;20.046;2024-03-07T12:28:26;92058.50;;;-1.31;91.66
85130;BME280;75492;49.310;20.046;2024-03-07T12:33:28;92053.50;;;-1.33;91.47
85130;BME280;75492;49.310;20.046;2024-03-07T12:38:31;92053.75;;;-1.29;92.36
85130;BME280;75492;49.310;20.046;2024-03-07T12:43:33;92061.16;;;-1.36;90.44
85130;BME280;75492;49.310;20.046;2024-03-07T12:48:34;92061.91;;;-1.26;91.26
85130;BME280;75492;49.310;20.046;2024-03-07T12:53:37;92064.53;;;-1.31;91.09
85130;BME280;75492;49.310;20.046;2024-03-07T12:58:38;92064.03;;;-1.33;92.28
85130;BME280;75492;49.310;20.046;2024-03-07T13:03:40;92043.78;;;-1.83;92.21
85130;BME280;75492;49.310;20.046;2024-03-07T13:08:43;92047.72;;;-2.01;93.42
85130;BME280;75492;49.310;20.046;2024-03-07T13:13:44;92051.16;;;-1.80;92.10
85130;BME280;75492;49.310;20.046;2024-03-07T13:18:45;92044.31;;;-1.66;91.76
85130;BME280;75492;49.310;20.046;2024-03-07T13:23:48;92068.00;;;-1.51;92.76
85130;BME280;75492;49.310;20.046;2024-03-07T13:28:50;92078.28;;;-1.64;92.94
85130;BME280;75492;49.310;20.046;2024-03-07T13:33:51;92065.63;;;-1.57;93.32
85130;BME280;75492;49.310;20.046;2024-03-07T13:38:54;92063.00;;;-1.98;94.28
85130;BME280;75492;49.310;20.046;2024-03-07T13:43:55;92061.97;;;-1.92;94.48
85130;BME280;75492;49.310;20.046;2024-03-07T13:48:57;92067.75;;;-1.80;94.21
85130;BME280;75492;49.310;20.046;2024-03-07T13:54:00;92068.00;;;-1.92;94.60
85130;BME280;75492;49.310;20.046;2024-03-07T13:59:17;92076.72;;;-1.66;94.23
85130;BME280;75492;49.310;20.046;2024-03-07T14:04:44;92076.97;;;-1.52;93.46
85130;BME280;75492;49.310;20.046;2024-03-07T14:10:04;92080.38;;;-1.51;93.20
85130;BME280;75492;49.310;20.046;2024-03-07T14:15:54;92067.22;;;-1.36;93.88
85130;BME280;75492;49.310;20.046;2024-03-07T14:21:12;92075.88;;;-1.30;92.45
85130;BME280;75492;49.310;20.046;2024-03-07T14:26:45;92063.53;;;-1.55;92.27
85130;BME280;75492;49.310;20.046;2024-03-07T14:31:51;92083.00;;;-1.36;93.29
85130;BME280;75492;49.310;20.046;2024-03-07T14:36:56;92088.56;;;-1.58;91.69
85130;BME280;75492;49.310;20.046;2024-03-07T14:42:02;92083.28;;;-1.48;92.78
85130;BME280;75492;49.310;20.046;2024-03-07T14:47:06;92075.09;;;-1.41;92.46
85130;BME280;75492;49.310;20.046;2024-03-07T14:52:08;92050.38;;;-1.76;92.03
85130;BME280;75492;49.310;20.046;2024-03-07T14:57:10;92099.88;;;-1.68;91.80
85130;BME280;75492;49.310;20.046;2024-03-07T15:02:12;92089.88;;;-1.66;92.70
85130;BME280;75492;49.310;20.046;2024-03-07T15:07:14;92073.53;;;-1.78;92.30
85130;BME280;75492;49.310;20.046;2024-03-07T15:12:17;92086.47;;;-1.66;91.87
85130;BME280;75492;49.310;20.046;2024-03-07T15:17:18;92094.88;;;-1.49;91.97
85130;BME280;75492;49.310;20.046;2024-03-07T15:22:20;92083.81;;;-1.35;92.17
85130;BME280;75492;49.310;20.046;2024-03-07T15:27:22;92093.56;;;-1.46;91.60
85130;BME280;75492;49.310;20.046;2024-03-07T15:32:24;92102.50;;;-1.68;92.94
85130;BME280;75492;49.310;20.046;2024-03-07T15:37:25;92092.50;;;-1.60;91.85
85130;BME280;75492;49.310;20.046;2024-03-07T15:42:28;92094.88;;;-1.64;92.00
85130;BME280;75492;49.310;20.046;2024-03-07T15:47:29;92103.56;;;-1.63;92.22
85130;BME280;75492;49.310;20.046;2024-03-07T15:52:31;92072.75;;;-1.58;91.36
85130;BME280;75492;49.310;20.046;2024-03-07T15:57:33;92088.81;;;-1.64;91.10
85130;BME280;75492;49.310;20.046;2024-03-07T16:02:37;92094.34;;;-1.51;91.58
85130;BME280;75492;49.310;20.046;2024-03-07T16:07:39;92107.00;;;-1.63;92.49
85130;BME280;75492;49.310;20.046;2024-03-07T16:12:42;92100.94;;;-1.89;93.62
85130;BME280;75492;49.310;20.046;2024-03-07T16:17:43;92116.47;;;-1.62;93.57
85130;BME280;75492;49.310;20.046;2024-03-07T16:22:45;92120.44;;;-1.49;94.37
85130;BME280;75492;49.310;20.046;2024-03-07T16:27:49;92095.66;;;-1.74;93.62
85130;BME280;75492;49.310;20.046;2024-03-07T16:32:52;92123.56;;;-1.68;93.50
85130;BME280;75492;49.310;20.046;2024-03-07T16:37:53;92127.25;;;-1.63;93.36
85130;BME280;75492;49.310;20.046;2024-03-07T16:42:57;92122.00;;;-1.89;93.83
85130;BME280;75492;49.310;20.046;2024-03-07T16:47:59;92102.75;;;-2.00;93.95
85130;BME280;75492;49.310;20.046;2024-03-07T16:53:02;92127.50;;;-1.96;94.03
85130;BME280;75492;49.310;20.046;2024-03-07T16:58:06;92124.63;;;-1.89;94.22
85130;BME280;75492;49.310;20.046;2024-03-07T17:03:08;92133.84;;;-1.76;93.53
85130;BME280;75492;49.310;20.046;2024-03-07T17:08:10;92084.53;;;-2.17;93.59
85130;BME280;75492;49.310;20.046;2024-03-07T17:13:13;92111.13;;;-2.23;94.64
85130;BME280;75492;49.310;20.046;2024-03-07T17:18:15;92130.63;;;-2.04;94.48
85130;BME280;75492;49.310;20.046;2024-03-07T17:23:16;92140.16;;;-1.77;93.68
85130;BME280;75492;49.310;20.046;2024-03-07T17:28:19;92154.66;;;-1.75;93.90
85130;BME280;75492;49.310;20.046;2024-03-07T17:33:20;92153.84;;;-1.85;93.78
85130;BME280;75492;49.310;20.046;2024-03-07T17:38:21;92158.09;;;-1.79;94.00
85130;BME280;75492;49.310;20.046;2024-03-07T17:43:24;92153.34;;;-1.62;92.58
85130;BME280;75492;49.310;20.046;2024-03-07T17:48:26;92145.41;;;-1.87;93.19
85130;BME280;75492;49.310;20.046;2024-03-07T17:53:27;92122.50;;;-1.87;92.00
85130;BME280;75492;49.310;20.046;2024-03-07T17:58:29;92145.44;;;-1.72;91.51
85130;BME280;75492;49.310;20.046;2024-03-07T18:03:31;92150.19;;;-1.69;92.52
85130;BME280;75492;49.310;20.046;2024-03-07T18:08:32;92138.34;;;-1.61;90.65
85130;BME280;75492;49.310;20.046;2024-03-07T18:13:35;92153.63;;;-1.69;91.43
85130;BME280;75492;49.310;20.046;2024-03-07T18:18:38;92124.88;;;-1.80;90.91
85130;BME280;75492;49.310;20.046;2024-03-07T18:23:39;92138.03;;;-1.80;92.27
85130;BME280;75492;49.310;20.046;2024-03-07T18:28:42;92147.81;;;-1.55;91.51
85130;BME280;75492;49.310;20.046;2024-03-07T18:33:43;92148.88;;;-1.67;92.31
85130;BME280;75492;49.310;20.046;2024-03-07T18:38:44;92157.53;;;-1.81;92.91
85130;BME280;75492;49.310;20.046;2024-03-07T18:43:47;92152.28;;;-1.76;93.29
85130;BME280;75492;49.310;20.046;2024-03-07T18:48:48;92126.44;;;-1.95;93.47
85130;BME280;75492;49.310;20.046;2024-03-07T18:53:51;92158.06;;;-1.74;93.13
85130;BME280;75492;49.310;20.046;2024-03-07T18:58:53;92144.31;;;-2.07;95.14
85130;BME280;75492;49.310;20.046;2024-03-07T19:03:55;92158.09;;;-1.64;94.29
85130;BME280;75492;49.310;20.046;2024-03-07T19:08:56;92129.09;;;-2.00;94.11
85130;BME280;75492;49.310;20.046;2024-03-07T19:13:59;92163.34;;;-1.69;93.52
85130;BME280;75492;49.310;20.046;2024-03-07T19:19:00;92157.03;;;-1.68;94.87
85130;BME280;75492;49.310;20.046;2024-03-07T19:24:03;92155.44;;;-1.84;94.71
85130;BME280;75492;49.310;20.046;2024-03-07T19:29:06;92163.09;;;-1.68;93.50
85130;BME280;75492;49.310;20.046;2024-03-07T19:34:08;92158.34;;;-1.71;94.30
85130;BME280;75492;49.310;20.046;2024-03-07T19:39:10;92157.56;;;-1.76;95.28
85130;BME280;75492;49.310;20.046;2024-03-07T19:44:13;92160.44;;;-1.83;94.23
85130;BME280;75492;49.310;20.046;2024-03-07T19:49:15;92150.16;;;-1.90;94.78
85130;BME280;75492;49.310;20.046;2024-03-07T19:54:16;92160.44;;;-1.78;95.24
85130;BME280;75492;49.310;20.046;2024-03-07T19:59:19;92152.81;;;-1.64;94.72
85130;BME280;75492;49.310;20.046;2024-03-07T20:04:20;92162.56;;;-1.75;94.98
85130;BME280;75492;49.310;20.046;2024-03-07T20:09:22;92149.91;;;-1.78;93.91
85130;BME280;75492;49.310;20.046;2024-03-07T20:14:24;92151.78;;;-1.63;93.77
85130;BME280;75492;49.310;20.046;2024-03-07T20:19:26;92143.63;;;-1.67;92.48
85130;BME280;75492;49.310;20.046;2024-03-07T20:24:27;92150.97;;;-1.69;93.32
85130;BME280;75492;49.310;20.046;2024-03-07T20:29:30;92157.56;;;-1.76;93.87
85130;BME280;75492;49.310;20.046;2024-03-07T20:34:31;92158.63;;;-1.72;93.99
85130;BME280;75492;49.310;20.046;2024-03-07T20:39:32;92162.03;;;-1.61;92.38
85130;BME280;75492;49.310;20.046;2024-03-07T20:44:35;92158.88;;;-1.63;93.48
85130;BME280;75492;49.310;20.046;2024-03-07T20:49:37;92162.56;;;-1.64;92.76
85130;BME280;75492;49.310;20.046;2024-03-07T20:54:38;92162.31;;;-1.63;92.05
85130;BME280;75492;49.310;20.046;2024-03-07T20:59:41;92166.78;;;-1.63;92.38
85130;BME280;75492;49.310;20.046;2024-03-07T21:04:42;92158.88;;;-1.79;93.80
85130;BME280;75492;49.310;20.046;2024-03-07T21:09:44;92160.44;;;-1.78;92.63
85130;BME280;75492;49.310;20.046;2024-03-07T21:14:47;92163.38;;;-1.59;91.87
85130;BME280;75492;49.310;20.046;2024-03-07T21:19:48;92156.75;;;-1.82;90.99
85130;BME280;75492;49.310;20.046;2024-03-07T21:24:50;92130.41;;;-1.77;90.44
85130;BME280;75492;49.310;20.046;2024-03-07T21:29:53;92156.78;;;-1.61;91.64
85130;BME280;75492;49.310;20.046;2024-03-07T21:34:54;92147.03;;;-1.76;90.52
85130;BME280;75492;49.310;20.046;2024-03-07T21:39:55;92150.16;;;-1.84;90.23
85130;BME280;75492;49.310;20.046;2024-03-07T21:44:58;92158.06;;;-1.74;90.28
85130;BME280;75492;49.310;20.046;2024-03-07T21:50:00;92134.38;;;-1.90;90.74
85130;BME280;75492;49.310;20.046;2024-03-07T21:55:01;92150.44;;;-1.76;89.50
85130;BME280;75492;49.310;20.046;2024-03-07T22:00:06;92130.16;;;-1.80;89.79
85130;BME280;75492;49.310;20.046;2024-03-07T22:05:07;92112.78;;;-1.86;88.97
85130;BME280;75492;49.310;20.046;2024-03-07T22:10:09;92152.28;;;-1.76;89.82
85130;BME280;75492;49.310;20.046;2024-03-07T22:15:12;92138.31;;;-1.82;88.92
85130;BME280;75492;49.310;20.046;2024-03-07T22:20:16;92142.00;;;-1.83;88.07
85130;BME280;75492;49.310;20.046;2024-03-07T22:25:18;92146.72;;;-1.95;90.35
85130;BME280;75492;49.310;20.046;2024-03-07T22:30:21;92145.69;;;-1.84;88.94
85130;BME280;75492;49.310;20.046;2024-03-07T22:35:22;92112.19;;;-2.14;89.82
85130;BME280;75492;49.310;20.046;2024-03-07T22:40:23;92139.34;;;-1.88;89.28
85130;BME280;75492;49.310;20.046;2024-03-07T22:45:26;92111.69;;;-2.06;88.52
85130;BME280;75492;49.310;20.046;2024-03-07T22:50:27;92130.13;;;-2.01;89.13
85130;BME280;75492;49.310;20.046;2024-03-07T22:55:29;92130.97;;;-1.80;89.82
85130;BME280;75492;49.310;20.046;2024-03-07T23:00:32;92127.53;;;-1.85;89.82
85130;BME280;75492;49.310;20.046;2024-03-07T23:56:45;92120.69;;;-1.61;88.88
